createdAt,value
2019-04-20T00:00:01.081Z,0.00
2019-04-20T00:00:56.542Z,0.00
2019-04-20T00:01:58.193Z,0.00
2019-04-20T00:02:57.142Z,0.00
2019-04-20T00:03:55.578Z,0.00
2019-04-20T00:04:55.056Z,0.00
2019-04-20T00:05:55.205Z,0.00
2019-04-20T00:06:56.150Z,0.00
2019-04-20T00:07:55.796Z,0.00
2019-04-20T00:08:59.867Z,0.00
2019-04-20T00:10:02.514Z,0.00
2019-04-20T00:11:02.395Z,0.00
2019-04-20T00:12:05.234Z,0.00
2019-04-20T00:13:09.209Z,0.00
2019-04-20T00:14:03.142Z,0.00
2019-04-20T00:14:54.809Z,0.00
2019-04-20T00:15:55.771Z,0.00
2019-04-20T00:16:54.813Z,0.00
2019-04-20T00:17:58.977Z,0.00
2019-04-20T00:18:58.552Z,0.00
2019-04-20T00:19:57.761Z,0.00
2019-04-20T00:21:00.279Z,0.00
2019-04-20T00:22:00.319Z,0.00
2019-04-20T00:22:56.486Z,0.00
2019-04-20T00:23:54.848Z,0.00
2019-04-20T00:24:59.372Z,0.00
2019-04-20T00:26:07.726Z,0.00
2019-04-20T00:27:15.769Z,0.00
2019-04-20T00:28:15.325Z,0.00
2019-04-20T00:29:14.366Z,0.00
2019-04-20T00:30:06.828Z,0.00
2019-04-20T00:31:13.858Z,0.00
2019-04-20T00:32:07.152Z,0.00
2019-04-20T00:33:04.586Z,0.00
2019-04-20T00:34:05.897Z,0.00
2019-04-20T00:34:55.781Z,0.00
2019-04-20T00:35:54.896Z,0.00
2019-04-20T00:36:56.051Z,0.00
2019-04-20T00:37:54.977Z,0.00
2019-04-20T00:38:59.350Z,0.00
2019-04-20T00:39:55.982Z,0.00
2019-04-20T00:40:59.778Z,0.00
2019-04-20T00:42:00.449Z,0.00
2019-04-20T00:42:57.109Z,0.00
2019-04-20T00:43:57.764Z,0.00
2019-04-20T00:45:00.656Z,0.00
2019-04-20T00:46:01.977Z,0.00
2019-04-20T00:47:08.704Z,0.00
2019-04-20T00:48:01.167Z,0.00
2019-04-20T00:49:01.387Z,0.00
2019-04-20T00:50:07.633Z,0.00
2019-04-20T00:51:20.267Z,0.00
2019-04-20T00:52:23.751Z,0.00
2019-04-20T00:53:09.342Z,0.00
2019-04-20T00:53:57.274Z,0.00
2019-04-20T00:54:55.834Z,0.00
2019-04-20T00:55:54.992Z,0.00
2019-04-20T00:57:06.619Z,0.00
2019-04-20T00:57:59.712Z,0.00
2019-04-20T00:59:09.155Z,0.00
2019-04-20T01:00:10.983Z,0.00
2019-04-20T01:01:17.184Z,0.00
2019-04-20T01:02:15.667Z,0.00
2019-04-20T01:03:10.159Z,0.00
2019-04-20T01:04:15.056Z,0.00
2019-04-20T01:05:11.087Z,0.00
2019-04-20T01:06:16.279Z,0.00
2019-04-20T01:07:08.252Z,0.00
2019-04-20T01:07:59.918Z,0.00
2019-04-20T01:08:55.088Z,0.00
2019-04-20T01:09:54.641Z,0.00
2019-04-20T01:10:57.693Z,0.00
2019-04-20T01:11:54.629Z,0.00
2019-04-20T01:13:01.383Z,0.00
2019-04-20T01:13:58.946Z,0.00
2019-04-20T01:14:59.143Z,0.00
2019-04-20T01:16:03.513Z,0.00
2019-04-20T01:17:02.103Z,0.00
2019-04-20T01:17:54.611Z,0.00
2019-04-20T01:18:54.607Z,0.00
2019-04-20T01:19:54.604Z,0.00
2019-04-20T01:21:00.323Z,0.00
2019-04-20T01:22:00.028Z,0.00
2019-04-20T01:23:01.857Z,0.00
2019-04-20T01:23:59.174Z,0.00
2019-04-20T01:24:55.013Z,0.00
2019-04-20T01:26:01.222Z,0.00
2019-04-20T01:26:57.980Z,0.00
2019-04-20T01:28:14.868Z,0.00
2019-04-20T01:29:09.021Z,0.00
2019-04-20T01:30:07.440Z,0.00
2019-04-20T01:31:06.512Z,0.00
2019-04-20T01:32:09.242Z,0.00
2019-04-20T01:33:08.901Z,0.00
2019-04-20T01:34:03.098Z,0.00
2019-04-20T01:35:05.896Z,0.00
2019-04-20T01:36:14.730Z,0.00
2019-04-20T01:37:09.303Z,0.00
2019-04-20T01:38:12.194Z,0.00
2019-04-20T01:39:07.780Z,0.00
2019-04-20T01:39:58.596Z,0.00
2019-04-20T01:40:55.031Z,0.00
2019-04-20T01:41:54.521Z,0.00
2019-04-20T01:42:55.328Z,0.00
2019-04-20T01:43:54.513Z,0.00
2019-04-20T01:44:56.953Z,0.00
2019-04-20T01:46:01.389Z,0.00
2019-04-20T01:46:58.683Z,0.00
2019-04-20T01:47:57.806Z,0.00
2019-04-20T01:48:54.828Z,0.00
2019-04-20T01:50:02.728Z,0.00
2019-04-20T01:51:03.935Z,0.00
2019-04-20T01:52:03.873Z,0.00
2019-04-20T01:53:06.909Z,0.00
2019-04-20T01:54:08.278Z,0.00
2019-04-20T01:55:14.282Z,0.00
2019-04-20T01:56:15.315Z,0.00
2019-04-20T01:57:04.776Z,0.00
2019-04-20T01:58:12.388Z,0.00
2019-04-20T01:59:14.357Z,0.00
2019-04-20T02:00:03.602Z,0.00
2019-04-20T02:00:57.319Z,0.00
2019-04-20T02:01:59.337Z,0.00
2019-04-20T02:02:59.351Z,0.00
2019-04-20T02:03:57.153Z,0.00
2019-04-20T02:04:59.641Z,0.00
2019-04-20T02:06:01.836Z,0.00
2019-04-20T02:06:58.736Z,0.00
2019-04-20T02:07:56.715Z,0.00
2019-04-20T02:08:59.159Z,0.00
2019-04-20T02:10:00.807Z,0.00
2019-04-20T02:10:59.250Z,0.00
2019-04-20T02:11:55.731Z,0.00
2019-04-20T02:12:59.359Z,0.00
2019-04-20T02:13:58.799Z,0.00
2019-04-20T02:14:59.437Z,0.00
2019-04-20T02:15:58.918Z,0.00
2019-04-20T02:17:04.471Z,0.00
2019-04-20T02:18:07.889Z,0.00
2019-04-20T02:19:09.349Z,0.00
2019-04-20T02:20:14.339Z,0.00
2019-04-20T02:21:12.209Z,0.00
2019-04-20T02:22:07.594Z,0.00
2019-04-20T02:23:07.363Z,0.00
2019-04-20T02:23:59.530Z,0.00
2019-04-20T02:24:55.156Z,0.00
2019-04-20T02:25:54.353Z,0.00
2019-04-20T02:26:55.622Z,0.00
2019-04-20T02:28:13.796Z,0.00
2019-04-20T02:29:17.513Z,0.00
2019-04-20T02:30:27.506Z,0.00
2019-04-20T02:31:32.610Z,0.00
2019-04-20T02:32:22.916Z,0.00
2019-04-20T02:33:39.020Z,0.00
2019-04-20T02:34:33.200Z,0.00
2019-04-20T02:35:27.860Z,0.00
2019-04-20T02:36:40.633Z,0.00
2019-04-20T02:38:44.327Z,0.00
2019-04-20T02:40:39.670Z,0.00
2019-04-20T02:41:27.864Z,0.00
2019-04-20T02:45:42.318Z,0.00
2019-04-20T02:46:24.762Z,0.00
2019-04-20T02:47:36.221Z,0.00
2019-04-20T02:48:25.339Z,0.00
2019-04-20T02:49:35.396Z,0.00
2019-04-20T02:50:30.862Z,0.00
2019-04-20T02:51:23.563Z,0.00
2019-04-20T02:52:34.139Z,0.00
2019-04-20T02:53:30.179Z,0.00
2019-04-20T02:54:28.640Z,0.00
2019-04-20T02:55:22.526Z,0.00
2019-04-20T02:56:32.358Z,0.00
2019-04-20T02:57:33.030Z,0.00
2019-04-20T02:58:23.602Z,0.00
2019-04-20T03:00:17.834Z,0.00
2019-04-20T03:01:18.811Z,0.00
2019-04-20T03:02:13.363Z,0.00
2019-04-20T03:03:08.091Z,0.00
2019-04-20T03:03:58.228Z,0.00
2019-04-20T03:05:08.224Z,0.00
2019-04-20T03:06:08.516Z,0.00
2019-04-20T03:07:09.278Z,0.00
2019-04-20T03:08:16.463Z,0.00
2019-04-20T03:09:17.241Z,0.00
2019-04-20T03:10:13.621Z,0.00
2019-04-20T03:11:20.926Z,0.00
2019-04-20T03:12:18.737Z,0.00
2019-04-20T03:13:14.143Z,0.00
2019-04-20T03:14:09.584Z,0.00
2019-04-20T03:15:09.433Z,0.00
2019-04-20T03:16:11.231Z,0.00
2019-04-20T03:17:16.514Z,0.00
2019-04-20T03:18:13.598Z,0.00
2019-04-20T03:19:12.974Z,0.00
2019-04-20T03:20:18.833Z,0.00
2019-04-20T03:21:21.454Z,0.00
2019-04-20T03:22:24.593Z,0.00
2019-04-20T03:24:20.312Z,0.00
2019-04-20T03:25:18.078Z,0.00
2019-04-20T03:26:16.208Z,0.00
2019-04-20T03:27:14.883Z,0.00
2019-04-20T03:28:16.816Z,0.00
2019-04-20T03:29:05.374Z,0.00
2019-04-20T03:30:40.232Z,0.00
2019-04-20T03:32:40.329Z,0.00
2019-04-20T03:34:51.593Z,0.00
2019-04-20T03:35:20.914Z,4.00
2019-04-20T03:36:25.539Z,4.00
2019-04-20T03:37:24.519Z,0.00
2019-04-20T03:38:16.961Z,4.00
2019-04-20T03:39:13.877Z,4.00
2019-04-20T03:40:10.286Z,4.00
2019-04-20T03:41:05.151Z,4.00
2019-04-20T03:41:56.954Z,4.00
2019-04-20T03:42:54.889Z,8.00
2019-04-20T03:44:02.513Z,8.00
2019-04-20T03:45:00.462Z,12.00
2019-04-20T03:46:01.076Z,12.00
2019-04-20T03:46:59.655Z,16.00
2019-04-20T03:48:06.166Z,20.00
2019-04-20T03:49:11.830Z,24.00
2019-04-20T03:50:18.348Z,28.00
2019-04-20T03:51:15.234Z,32.00
2019-04-20T03:52:16.377Z,40.00
2019-04-20T03:53:17.257Z,44.00
2019-04-20T03:54:08.542Z,52.00
2019-04-20T03:55:15.128Z,64.00
2019-04-20T03:56:19.137Z,72.00
2019-04-20T03:57:17.308Z,84.00
2019-04-20T03:58:14.231Z,92.00
2019-04-20T03:59:10.373Z,108.00
2019-04-20T04:00:10.157Z,124.00
2019-04-20T04:01:14.645Z,144.00
2019-04-20T04:02:37.715Z,164.00
2019-04-20T04:03:26.552Z,188.00
2019-04-20T04:04:16.849Z,208.00
2019-04-20T04:05:08.853Z,232.00
2019-04-20T04:06:06.024Z,260.00
2019-04-20T04:06:59.343Z,292.00
2019-04-20T04:08:05.140Z,320.00
2019-04-20T04:09:08.957Z,356.00
2019-04-20T04:10:09.753Z,392.00
2019-04-20T04:11:12.475Z,428.00
2019-04-20T04:12:06.566Z,468.00
2019-04-20T04:12:54.704Z,512.00
2019-04-20T04:13:54.636Z,552.00
2019-04-20T04:14:53.896Z,600.00
2019-04-20T04:15:59.448Z,652.00
2019-04-20T04:16:57.524Z,700.00
2019-04-20T04:17:57.963Z,748.00
2019-04-20T04:19:07.795Z,808.00
2019-04-20T04:20:03.091Z,860.00
2019-04-20T04:21:01.468Z,916.00
2019-04-20T04:22:11.099Z,976.00
2019-04-20T04:23:09.962Z,1040.00
2019-04-20T04:24:05.593Z,1100.00
2019-04-20T04:25:07.909Z,1160.00
2019-04-20T04:26:08.619Z,1228.00
2019-04-20T04:27:06.950Z,1292.00
2019-04-20T04:28:12.901Z,1356.00
2019-04-20T04:29:19.265Z,1420.00
2019-04-20T04:30:28.535Z,1492.00
2019-04-20T04:31:11.947Z,1556.00
2019-04-20T04:32:21.239Z,1628.00
2019-04-20T04:33:40.233Z,1696.00
2019-04-20T04:34:12.497Z,1768.00
2019-04-20T04:35:13.081Z,1844.00
2019-04-20T04:36:10.080Z,1920.00
2019-04-20T04:37:18.001Z,1996.00
2019-04-20T04:38:14.300Z,2068.00
2019-04-20T04:39:15.422Z,2120.00
2019-04-20T04:40:22.412Z,2192.00
2019-04-20T04:41:19.651Z,2256.00
2019-04-20T04:42:19.211Z,2328.00
2019-04-20T04:43:16.033Z,2412.00
2019-04-20T04:44:09.661Z,2492.00
2019-04-20T04:45:01.640Z,2540.00
2019-04-20T04:45:53.753Z,2608.00
2019-04-20T04:46:58.541Z,2704.00
2019-04-20T04:47:53.754Z,2780.00
2019-04-20T04:49:03.912Z,2868.00
2019-04-20T04:50:02.392Z,2948.00
2019-04-20T04:51:00.780Z,2956.00
2019-04-20T04:52:02.262Z,2976.00
2019-04-20T04:53:02.775Z,3044.00
2019-04-20T04:54:01.992Z,3116.00
2019-04-20T04:55:05.252Z,3176.00
2019-04-20T04:56:01.355Z,3236.00
2019-04-20T04:56:54.568Z,3300.00
2019-04-20T04:57:53.830Z,3388.00
2019-04-20T04:58:53.856Z,3500.00
2019-04-20T04:59:53.694Z,3564.00
2019-04-20T05:01:01.384Z,3576.00
2019-04-20T05:01:56.549Z,3628.00
2019-04-20T05:02:59.025Z,3720.00
2019-04-20T05:04:28.857Z,3836.00
2019-04-20T05:05:10.588Z,4068.00
2019-04-20T05:06:13.098Z,4224.00
2019-04-20T05:07:07.289Z,4316.00
2019-04-20T05:08:02.797Z,4416.00
2019-04-20T05:08:58.419Z,4488.00
2019-04-20T05:09:54.821Z,4560.00
2019-04-20T05:10:54.132Z,4644.00
2019-04-20T05:11:59.724Z,4720.00
2019-04-20T05:12:54.804Z,4812.00
2019-04-20T05:14:01.576Z,4912.00
2019-04-20T05:15:03.559Z,5008.00
2019-04-20T05:16:08.092Z,5092.00
2019-04-20T05:17:09.928Z,5168.00
2019-04-20T05:18:12.850Z,5244.00
2019-04-20T05:19:26.560Z,5324.00
2019-04-20T05:20:15.090Z,5388.00
2019-04-20T05:21:15.338Z,5480.00
2019-04-20T05:22:15.930Z,5500.00
2019-04-20T05:23:08.600Z,5540.00
2019-04-20T05:24:14.830Z,5568.00
2019-04-20T05:25:15.450Z,5636.00
2019-04-20T05:26:14.326Z,5712.00
2019-04-20T05:27:18.006Z,5796.00
2019-04-20T05:28:11.962Z,5888.00
2019-04-20T05:29:04.522Z,5960.00
2019-04-20T05:29:54.930Z,6028.00
2019-04-20T05:30:59.322Z,6088.00
2019-04-20T05:32:01.096Z,6168.00
2019-04-20T05:33:01.473Z,6244.00
2019-04-20T05:35:17.755Z,6388.00
2019-04-20T05:36:12.679Z,6456.00
2019-04-20T05:37:22.465Z,6508.00
2019-04-20T05:38:24.234Z,6536.00
2019-04-20T05:39:23.643Z,6556.00
2019-04-20T05:40:20.614Z,6552.00
2019-04-20T05:41:11.713Z,6584.00
2019-04-20T05:42:19.137Z,6620.00
2019-04-20T05:43:13.796Z,6656.00
2019-04-20T05:44:10.118Z,6704.00
2019-04-20T05:45:11.712Z,6752.00
2019-04-20T05:46:16.902Z,6776.00
2019-04-20T05:47:11.226Z,6800.00
2019-04-20T05:48:07.594Z,6852.00
2019-04-20T05:49:19.082Z,6928.00
2019-04-20T05:50:04.970Z,6980.00
2019-04-20T05:51:21.151Z,6988.00
2019-04-20T05:52:25.401Z,7032.00
2019-04-20T05:53:14.455Z,7084.00
2019-04-20T05:54:15.515Z,7132.00
2019-04-20T05:55:16.340Z,7140.00
2019-04-20T05:56:10.574Z,7144.00
2019-04-20T05:57:21.290Z,7180.00
2019-04-20T05:58:17.840Z,7236.00
2019-04-20T05:59:11.518Z,7304.00
2019-04-20T06:00:13.654Z,7372.00
2019-04-20T06:01:19.261Z,7412.00
2019-04-20T06:02:16.901Z,7468.00
2019-04-20T06:03:10.823Z,7528.00
2019-04-20T06:04:10.219Z,7588.00
2019-04-20T06:05:25.276Z,7656.00
2019-04-20T06:06:14.111Z,7692.00
2019-04-20T06:07:17.812Z,7748.00
2019-04-20T06:08:25.030Z,7820.00
2019-04-20T06:09:15.648Z,7888.00
2019-04-20T06:10:18.887Z,8032.00
2019-04-20T06:11:17.470Z,8100.00
2019-04-20T06:12:31.694Z,8160.00
2019-04-20T06:13:11.149Z,8324.00
2019-04-20T06:14:03.748Z,8548.00
2019-04-20T06:15:10.691Z,8776.00
2019-04-20T06:16:07.394Z,9084.00
2019-04-20T06:17:19.549Z,9136.00
2019-04-20T06:18:12.314Z,8908.00
2019-04-20T06:19:20.137Z,8768.00
2019-04-20T06:20:12.639Z,8860.00
2019-04-20T06:21:20.117Z,8948.00
2019-04-20T06:22:23.131Z,8964.00
2019-04-20T06:23:19.572Z,8968.00
2019-04-20T06:24:18.355Z,8932.00
2019-04-20T06:25:33.489Z,8936.00
2019-04-20T06:26:26.790Z,8976.00
2019-04-20T06:27:16.428Z,9016.00
2019-04-20T06:28:12.772Z,9076.00
2019-04-20T06:29:10.099Z,9244.00
2019-04-20T06:30:11.155Z,9420.00
2019-04-20T06:31:19.046Z,9400.00
2019-04-20T06:32:23.257Z,9328.00
2019-04-20T06:33:24.381Z,9328.00
2019-04-20T06:34:25.912Z,9412.00
2019-04-20T06:36:32.200Z,9572.00
2019-04-20T06:37:10.174Z,9604.00
2019-04-20T06:38:26.682Z,9616.00
2019-04-20T06:39:16.195Z,9648.00
2019-04-20T06:40:29.263Z,9708.00
2019-04-20T06:41:21.222Z,9784.00
2019-04-20T06:42:14.832Z,9804.00
2019-04-20T06:43:13.286Z,9860.00
2019-04-20T06:44:21.437Z,9920.00
2019-04-20T06:45:20.068Z,9960.00
2019-04-20T06:46:14.867Z,10032.00
2019-04-20T06:47:15.775Z,10108.00
2019-04-20T06:48:21.501Z,10188.00
2019-04-20T06:49:24.409Z,10292.00
2019-04-20T06:50:14.107Z,10336.00
2019-04-20T06:51:09.306Z,10364.00
2019-04-20T06:52:20.290Z,10452.00
2019-04-20T06:53:16.396Z,10572.00
2019-04-20T06:54:07.277Z,10580.00
2019-04-20T06:55:09.925Z,10696.00
2019-04-20T06:56:21.709Z,10784.00
2019-04-20T06:57:18.391Z,10936.00
2019-04-20T06:58:31.875Z,10972.00
2019-04-20T06:59:21.540Z,11072.00
2019-04-20T07:00:22.925Z,11188.00
2019-04-20T07:01:10.874Z,11304.00
2019-04-20T07:03:28.294Z,11556.00
2019-04-20T07:04:33.517Z,11628.00
2019-04-20T07:05:22.454Z,11816.00
2019-04-20T07:06:32.226Z,11932.00
2019-04-20T07:07:19.574Z,12112.00
2019-04-20T07:08:28.960Z,12252.00
2019-04-20T07:09:35.362Z,12432.00
2019-04-20T07:10:19.429Z,12616.00
2019-04-20T07:11:18.833Z,12820.00
2019-04-20T07:12:11.374Z,12976.00
2019-04-20T07:13:07.665Z,13236.00
2019-04-20T07:14:01.057Z,13560.00
2019-04-20T07:15:15.059Z,13940.00
2019-04-20T07:16:18.545Z,14296.00
2019-04-20T07:17:26.977Z,14652.00
2019-04-20T07:18:17.159Z,14860.00
2019-04-20T07:19:16.816Z,15052.00
2019-04-20T07:20:11.559Z,15280.00
2019-04-20T07:21:23.437Z,15348.00
2019-04-20T07:22:25.357Z,15528.00
2019-04-20T07:23:21.321Z,15784.00
2019-04-20T07:25:13.916Z,16660.00
2019-04-20T07:26:17.029Z,17068.00
2019-04-20T07:27:13.635Z,17584.00
2019-04-20T07:28:24.276Z,18016.00
2019-04-20T07:29:18.483Z,18048.00
2019-04-20T07:30:12.431Z,18304.00
2019-04-20T07:31:15.565Z,19040.00
2019-04-20T07:32:07.860Z,19424.00
2019-04-20T07:33:20.042Z,19328.00
2019-04-20T07:34:15.640Z,19424.00
2019-04-20T07:35:14.099Z,19776.00
2019-04-20T07:36:20.164Z,20512.00
2019-04-20T07:37:38.259Z,20672.00
2019-04-20T07:38:36.859Z,20576.00
2019-04-20T07:39:13.256Z,20576.00
2019-04-20T07:40:17.671Z,21056.00
2019-04-20T07:41:24.865Z,21312.00
2019-04-20T07:42:19.163Z,21696.00
2019-04-20T07:43:09.179Z,22144.00
2019-04-20T07:44:21.566Z,22528.00
2019-04-20T07:45:21.806Z,22464.00
2019-04-20T07:46:20.805Z,22240.00
2019-04-20T07:47:24.165Z,21312.00
2019-04-20T07:48:17.967Z,21216.00
2019-04-20T07:49:15.988Z,21504.00
2019-04-20T07:50:09.099Z,21984.00
2019-04-20T07:51:03.535Z,23200.00
2019-04-20T07:51:54.019Z,24032.00
2019-04-20T07:53:08.909Z,25632.00
2019-04-20T07:54:23.288Z,26880.00
2019-04-20T07:56:14.722Z,29056.00
2019-04-20T07:57:14.532Z,28736.00
2019-04-20T07:58:05.253Z,27264.00
2019-04-20T07:58:58.699Z,26752.00
2019-04-20T08:00:17.476Z,27104.00
2019-04-20T08:01:23.801Z,26656.00
2019-04-20T08:02:30.763Z,26272.00
2019-04-20T08:03:20.151Z,26400.00
2019-04-20T08:04:13.492Z,26240.00
2019-04-20T08:05:09.463Z,26240.00
2019-04-20T08:06:03.699Z,26112.00
2019-04-20T08:07:01.458Z,26272.00
2019-04-20T08:08:09.493Z,25440.00
2019-04-20T08:09:08.302Z,24768.00
2019-04-20T08:10:00.336Z,24800.00
2019-04-20T08:11:12.679Z,25728.00
2019-04-20T08:12:21.789Z,26656.00
2019-04-20T08:13:21.652Z,28096.00
2019-04-20T08:14:22.848Z,28096.00
2019-04-20T08:15:24.048Z,27296.00
2019-04-20T08:16:15.969Z,26368.00
2019-04-20T08:17:21.340Z,25952.00
2019-04-20T08:18:13.644Z,24992.00
2019-04-20T08:19:10.474Z,23616.00
2019-04-20T08:20:15.866Z,23264.00
2019-04-20T08:21:21.009Z,22496.00
2019-04-20T08:22:21.637Z,21376.00
2019-04-20T08:23:17.040Z,19904.00
2019-04-20T08:24:13.171Z,18784.00
2019-04-20T08:25:12.670Z,17920.00
2019-04-20T08:26:01.696Z,17824.00
2019-04-20T08:26:59.023Z,17716.00
2019-04-20T08:27:55.019Z,17508.00
2019-04-20T08:29:01.460Z,17584.00
2019-04-20T08:30:09.100Z,17668.00
2019-04-20T08:31:08.866Z,17556.00
2019-04-20T08:32:16.128Z,17452.00
2019-04-20T08:33:14.485Z,17284.00
2019-04-20T08:34:18.586Z,17428.00
2019-04-20T08:35:22.405Z,17588.00
2019-04-20T08:36:18.344Z,17608.00
2019-04-20T08:37:11.081Z,17684.00
2019-04-20T08:38:36.985Z,17668.00
2019-04-20T08:40:14.756Z,17488.00
2019-04-20T08:41:15.243Z,17500.00
2019-04-20T08:42:16.328Z,17520.00
2019-04-20T08:43:36.822Z,17644.00
2019-04-20T08:44:36.901Z,17888.00
2019-04-20T08:45:18.076Z,17804.00
2019-04-20T08:46:15.037Z,17760.00
2019-04-20T08:47:18.266Z,17680.00
2019-04-20T08:48:18.637Z,17708.00
2019-04-20T08:49:22.073Z,17712.00
2019-04-20T08:50:19.848Z,17644.00
2019-04-20T08:51:13.129Z,17700.00
2019-04-20T08:52:36.778Z,17764.00
2019-04-20T08:53:20.769Z,17768.00
2019-04-20T08:54:15.465Z,18100.00
2019-04-20T08:55:10.495Z,18224.00
2019-04-20T08:56:09.883Z,18544.00
2019-04-20T08:56:58.593Z,19104.00
2019-04-20T08:57:54.664Z,19424.00
2019-04-20T08:58:55.067Z,20192.00
2019-04-20T08:59:55.956Z,21248.00
2019-04-20T09:00:58.686Z,21984.00
2019-04-20T09:01:58.103Z,22720.00
2019-04-20T09:03:01.196Z,23776.00
2019-04-20T09:04:03.647Z,24064.00
2019-04-20T09:05:01.065Z,24352.00
2019-04-20T09:06:03.482Z,24160.00
2019-04-20T09:07:07.691Z,23776.00
2019-04-20T09:08:05.419Z,23360.00
2019-04-20T09:09:19.770Z,24192.00
2019-04-20T09:10:16.611Z,25376.00
2019-04-20T09:11:10.214Z,26432.00
2019-04-20T09:12:09.124Z,28736.00
2019-04-20T09:13:08.406Z,36384.00
2019-04-20T09:13:58.718Z,45472.00
2019-04-20T09:14:55.173Z,50976.00
2019-04-20T09:15:55.643Z,52960.00
2019-04-20T09:17:00.052Z,49984.00
2019-04-20T09:18:00.586Z,46304.00
2019-04-20T09:18:59.877Z,37952.00
2019-04-20T09:20:04.149Z,31936.00
2019-04-20T09:21:01.289Z,29824.00
2019-04-20T09:22:03.209Z,28992.00
2019-04-20T09:23:12.923Z,28256.00
2019-04-20T09:24:21.703Z,28992.00
2019-04-20T09:25:27.938Z,29760.00
2019-04-20T09:26:26.930Z,30336.00
2019-04-20T09:27:09.500Z,32576.00
2019-04-20T09:28:08.432Z,34304.00
2019-04-20T09:29:18.199Z,33504.00
2019-04-20T09:30:09.130Z,32192.00
2019-04-20T09:31:14.330Z,30656.00
2019-04-20T09:32:15.853Z,28416.00
2019-04-20T09:33:14.683Z,26976.00
2019-04-20T09:34:14.412Z,27872.00
2019-04-20T09:35:13.549Z,28736.00
2019-04-20T09:36:12.989Z,30464.00
2019-04-20T09:37:16.801Z,33056.00
2019-04-20T09:38:12.171Z,35296.00
2019-04-20T09:39:04.838Z,37312.00
2019-04-20T09:40:16.090Z,36992.00
2019-04-20T09:41:25.271Z,37120.00
2019-04-20T09:42:00.737Z,36320.00
2019-04-20T09:42:55.288Z,35360.00
2019-04-20T09:43:56.150Z,35456.00
2019-04-20T09:44:58.945Z,35104.00
2019-04-20T09:46:00.220Z,34400.00
2019-04-20T09:46:58.319Z,34656.00
2019-04-20T09:47:57.039Z,36160.00
2019-04-20T09:48:59.834Z,38144.00
2019-04-20T09:50:09.320Z,37760.00
2019-04-20T09:51:19.212Z,37184.00
2019-04-20T09:52:12.244Z,38080.00
2019-04-20T09:53:11.596Z,37568.00
2019-04-20T09:54:10.751Z,38592.00
2019-04-20T09:55:10.723Z,40800.00
2019-04-20T09:56:12.990Z,41888.00
2019-04-20T09:57:13.268Z,42464.00
2019-04-20T09:58:09.741Z,42944.00
2019-04-20T09:59:16.819Z,45216.00
2019-04-20T10:00:12.100Z,47168.00
2019-04-20T10:01:12.376Z,47264.00
2019-04-20T10:02:05.436Z,50784.00
2019-04-20T10:02:55.648Z,53088.00
2019-04-20T10:03:56.981Z,53216.00
2019-04-20T10:04:55.737Z,53856.00
2019-04-20T10:05:55.955Z,53760.00
2019-04-20T10:07:02.230Z,55520.00
2019-04-20T10:07:59.905Z,58432.00
2019-04-20T10:08:58.272Z,58112.00
2019-04-20T10:09:55.904Z,59296.00
2019-04-20T10:10:56.053Z,62496.00
2019-04-20T10:11:55.810Z,66176.00
2019-04-20T10:12:56.359Z,67744.00
2019-04-20T10:13:56.472Z,69344.00
2019-04-20T10:14:58.513Z,70944.00
2019-04-20T10:15:55.879Z,73440.00
2019-04-20T10:16:55.908Z,76864.00
2019-04-20T10:17:56.057Z,76832.00
2019-04-20T10:18:56.918Z,79936.00
2019-04-20T10:19:55.986Z,81376.00
2019-04-20T10:20:55.979Z,76544.00
2019-04-20T10:21:56.976Z,71296.00
2019-04-20T10:22:56.330Z,77248.00
2019-04-20T10:23:56.615Z,88224.00
2019-04-20T10:24:57.178Z,91168.00
2019-04-20T10:25:56.541Z,92192.00
2019-04-20T10:26:56.610Z,95008.00
2019-04-20T10:27:56.093Z,93248.00
2019-04-20T10:28:57.383Z,97504.00
2019-04-20T10:29:57.509Z,95648.00
2019-04-20T10:30:56.746Z,96640.00
2019-04-20T10:32:00.129Z,102304.00
2019-04-20T10:32:57.452Z,97376.00
2019-04-20T10:33:57.530Z,101184.00
2019-04-20T10:34:56.813Z,100928.00
2019-04-20T10:35:57.418Z,92640.00
2019-04-20T10:36:57.275Z,104896.00
2019-04-20T10:37:57.581Z,97504.00
2019-04-20T10:38:56.295Z,107072.00
2019-04-20T10:39:56.597Z,112032.00
2019-04-20T10:41:06.371Z,99808.00
2019-04-20T10:42:00.681Z,102208.00
2019-04-20T10:42:59.552Z,97888.00
2019-04-20T10:43:56.703Z,93920.00
2019-04-20T10:44:58.633Z,100128.00
2019-04-20T10:45:57.193Z,95392.00
2019-04-20T10:46:56.627Z,93344.00
2019-04-20T10:47:56.967Z,101664.00
2019-04-20T10:49:00.831Z,99584.00
2019-04-20T10:49:56.638Z,102720.00
2019-04-20T10:50:56.920Z,100160.00
2019-04-20T10:51:57.716Z,102976.00
2019-04-20T10:52:56.737Z,103840.00
2019-04-20T10:53:56.573Z,103104.00
2019-04-20T10:54:56.654Z,103232.00
2019-04-20T10:55:57.776Z,98272.00
2019-04-20T10:56:57.353Z,95424.00
2019-04-20T10:57:57.670Z,98976.00
2019-04-20T10:58:57.910Z,104416.00
2019-04-20T10:59:57.533Z,102784.00
2019-04-20T11:00:57.678Z,97408.00
2019-04-20T11:01:58.002Z,102528.00
2019-04-20T11:02:57.473Z,99968.00
2019-04-20T11:03:56.765Z,101600.00
2019-04-20T11:04:57.040Z,107680.00
2019-04-20T11:05:58.557Z,97184.00
2019-04-20T11:06:56.840Z,102400.00
2019-04-20T11:07:57.310Z,104448.00
2019-04-20T11:08:58.507Z,100640.00
2019-04-20T11:10:10.652Z,101728.00
2019-04-20T11:11:08.401Z,99488.00
2019-04-20T11:11:56.904Z,98176.00
2019-04-20T11:12:57.134Z,102432.00
2019-04-20T11:13:59.896Z,101376.00
2019-04-20T11:14:56.991Z,101952.00
2019-04-20T11:15:56.965Z,99104.00
2019-04-20T11:16:58.319Z,99808.00
2019-04-20T11:17:57.517Z,101408.00
2019-04-20T11:18:57.748Z,101056.00
2019-04-20T11:19:57.219Z,99840.00
2019-04-20T11:20:57.458Z,101024.00
2019-04-20T11:21:57.077Z,104416.00
2019-04-20T11:22:58.143Z,103968.00
2019-04-20T11:23:58.332Z,95744.00
2019-04-20T11:24:58.478Z,95840.00
2019-04-20T11:25:58.075Z,97056.00
2019-04-20T11:26:58.320Z,99488.00
2019-04-20T11:27:58.420Z,103776.00
2019-04-20T11:28:57.985Z,104832.00
2019-04-20T11:29:58.208Z,106112.00
2019-04-20T11:30:58.415Z,102848.00
2019-04-20T11:31:58.144Z,101760.00
2019-04-20T11:32:58.098Z,107168.00
2019-04-20T11:33:58.294Z,108288.00
2019-04-20T11:35:02.162Z,105504.00
2019-04-20T11:35:57.321Z,110720.00
2019-04-20T11:36:57.354Z,105408.00
2019-04-20T11:37:57.521Z,109280.00
2019-04-20T11:38:58.699Z,108608.00
2019-04-20T11:39:57.418Z,112416.00
2019-04-20T11:41:09.990Z,117472.00
2019-04-20T11:41:57.420Z,120064.00
2019-04-20T11:42:57.501Z,119392.00
2019-04-20T11:43:57.839Z,119104.00
2019-04-20T11:44:57.524Z,115680.00
2019-04-20T11:45:58.445Z,115904.00
2019-04-20T11:46:58.644Z,112096.00
2019-04-20T11:47:57.831Z,109088.00
2019-04-20T11:48:57.548Z,107520.00
2019-04-20T11:49:57.683Z,113120.00
2019-04-20T11:50:57.895Z,112064.00
2019-04-20T11:51:57.598Z,105664.00
2019-04-20T11:52:57.804Z,106816.00
2019-04-20T11:53:58.514Z,105824.00
2019-04-20T11:54:58.098Z,107264.00
2019-04-20T11:55:58.483Z,107968.00
2019-04-20T11:56:57.685Z,108640.00
2019-04-20T11:57:58.293Z,112000.00
2019-04-20T11:58:58.880Z,111200.00
2019-04-20T11:59:59.105Z,109760.00
2019-04-20T12:01:04.168Z,106688.00
2019-04-20T12:02:02.698Z,102976.00
2019-04-20T12:03:00.557Z,105504.00
2019-04-20T12:04:02.849Z,113568.00
2019-04-20T12:05:10.182Z,108992.00
2019-04-20T12:06:01.626Z,110240.00
2019-04-20T12:06:59.002Z,107552.00
2019-04-20T12:07:58.669Z,106048.00
2019-04-20T12:08:58.992Z,111264.00
2019-04-20T12:10:05.660Z,111008.00
2019-04-20T12:11:01.611Z,108512.00
2019-04-20T12:12:09.295Z,107904.00
2019-04-20T12:12:59.502Z,103904.00
2019-04-20T12:13:58.654Z,110240.00
2019-04-20T12:14:58.774Z,111072.00
2019-04-20T12:15:59.243Z,109824.00
2019-04-20T12:16:58.066Z,112640.00
2019-04-20T12:17:58.084Z,110624.00
2019-04-20T12:18:58.123Z,105344.00
2019-04-20T12:19:58.119Z,106528.00
2019-04-20T12:20:58.913Z,110656.00
2019-04-20T12:21:58.153Z,113248.00
2019-04-20T12:22:58.222Z,110368.00
2019-04-20T12:23:58.340Z,109536.00
2019-04-20T12:24:58.250Z,108736.00
2019-04-20T12:25:58.271Z,107744.00
2019-04-20T12:26:58.685Z,110304.00
2019-04-20T12:28:01.501Z,109984.00